ETD1630 OMAA-EHAM
Flight info
| Callsign | ETD1630 |
|---|---|
| Flight time | N/A |
| Altitude | 38000 |
| Route | DAXIB Q563 UKUVO G462 TUMAK L602 TASMI/N0461F220 L602 ALPET/N0492F380 L718 DEBNI DCT SEVKU L718 KABAN UL718 ULSAB UG8 GEM/N0492F400 UT32 BUK UL602 MAKOL DCT EKNAB DCT GILEP DCT BEGLA DCT FMD DCT DITIS DCT LOMKI DCT VARIK DCT KATCE DCT EXOBA DCT NORKU |
| Aircraft | B789/H-SDE1E2E3FGHIJ2J3J4J5M1RWXY/LB1D1 |
Departure
| Time | 2026-05-07 05:17 |
|---|---|
| Airport | Zayed International Airport (OMAA) |
Arrival
| Time | N/A |
|---|---|
| Airport | Amsterdam Airport Schiphol (EHAM) |
| Time | Latitude | Longitude | Altitude | Speed | Heading |
|---|---|---|---|---|---|
| 2026-05-07 04:53 | 24.44447 | 54.62618 | 91 ft | 0 kts | 232° |
| 2026-05-07 05:05 | 24.44456 | 54.62631 | 94 ft | 2 kts | 232° |
| 2026-05-07 05:05 | 24.44466 | 54.62645 | 92 ft | 2 kts | 232° |
| 2026-05-07 05:06 | 24.44476 | 54.62660 | 91 ft | 2 kts | 232° |
| 2026-05-07 05:06 | 24.44486 | 54.62674 | 90 ft | 2 kts | 232° |
| 2026-05-07 05:06 | 24.44498 | 54.62686 | 90 ft | 2 kts | 194° |
| 2026-05-07 05:06 | 24.44513 | 54.62682 | 91 ft | 2 kts | 131° |
| 2026-05-07 05:07 | 24.44520 | 54.62672 | 92 ft | 0 kts | 116° |
| 2026-05-07 05:09 | 24.44519 | 54.62673 | 91 ft | 0 kts | 116° |
| 2026-05-07 05:09 | 24.44517 | 54.62678 | 91 ft | 1 kts | 116° |
| 2026-05-07 05:10 | 24.44516 | 54.62680 | 91 ft | 1 kts | 116° |
| 2026-05-07 05:10 | 24.44513 | 54.62686 | 95 ft | 2 kts | 115° |
| 2026-05-07 05:10 | 24.44500 | 54.62715 | 94 ft | 6 kts | 117° |
| 2026-05-07 05:10 | 24.44469 | 54.62761 | 92 ft | 9 kts | 133° |
| 2026-05-07 05:11 | 24.44421 | 54.62823 | 94 ft | 12 kts | 128° |
| 2026-05-07 05:11 | 24.44361 | 54.62907 | 94 ft | 16 kts | 128° |
| 2026-05-07 05:11 | 24.44291 | 54.63006 | 95 ft | 16 kts | 128° |
| 2026-05-07 05:11 | 24.44234 | 54.63104 | 94 ft | 14 kts | 120° |
| 2026-05-07 05:12 | 24.44177 | 54.63174 | 93 ft | 11 kts | 135° |
| 2026-05-07 05:12 | 24.44128 | 54.63235 | 94 ft | 10 kts | 128° |
| 2026-05-07 05:12 | 24.44086 | 54.63294 | 94 ft | 10 kts | 127° |
| 2026-05-07 05:12 | 24.44067 | 54.63346 | 95 ft | 5 kts | 89° |
| 2026-05-07 05:13 | 24.44075 | 54.63375 | 94 ft | 4 kts | 60° |
| 2026-05-07 05:13 | 24.44095 | 54.63400 | 95 ft | 5 kts | 43° |
| 2026-05-07 05:13 | 24.44131 | 54.63432 | 96 ft | 8 kts | 38° |
| 2026-05-07 05:13 | 24.44181 | 54.63451 | 95 ft | 7 kts | 353° |
| 2026-05-07 05:14 | 24.44219 | 54.63424 | 94 ft | 7 kts | 314° |
| 2026-05-07 05:14 | 24.44256 | 54.63381 | 93 ft | 6 kts | 318° |
| 2026-05-07 05:14 | 24.44303 | 54.63362 | 95 ft | 9 kts | 356° |
| 2026-05-07 05:14 | 24.44369 | 54.63389 | 95 ft | 12 kts | 41° |
| 2026-05-07 05:15 | 24.44398 | 54.63476 | 96 ft | 13 kts | 90° |
| 2026-05-07 05:15 | 24.44383 | 54.63591 | 96 ft | 17 kts | 105° |
| 2026-05-07 05:15 | 24.44334 | 54.63679 | 93 ft | 0 kts | 128° |
| 2026-05-07 05:15 | 24.44331 | 54.63683 | 94 ft | 1 kts | 128° |
| 2026-05-07 05:16 | 24.44325 | 54.63692 | 95 ft | 2 kts | 128° |
| 2026-05-07 05:16 | 24.44317 | 54.63704 | 95 ft | 2 kts | 128° |
| 2026-05-07 05:16 | 24.44221 | 54.63837 | 96 ft | 49 kts | 128° |
| 2026-05-07 05:16 | 24.43892 | 54.64295 | 97 ft | 104 kts | 128° |
| 2026-05-07 05:17 | 24.43297 | 54.65129 | 105 ft | 172 kts | 128° |
| 2026-05-07 05:17 | 24.42556 | 54.66212 | 911 ft | 169 kts | 127° |
| 2026-05-07 05:17 | 24.41888 | 54.67254 | 1910 ft | 172 kts | 134° |
| 2026-05-07 05:17 | 24.41104 | 54.68270 | 2781 ft | 178 kts | 136° |
| 2026-05-07 05:18 | 24.40301 | 54.69385 | 3515 ft | 198 kts | 130° |
| 2026-05-07 05:18 | 24.39518 | 54.70700 | 4334 ft | 208 kts | 121° |
| 2026-05-07 05:18 | 24.38862 | 54.72049 | 5357 ft | 209 kts | 121° |
| 2026-05-07 05:18 | 24.38009 | 54.73508 | 5722 ft | 236 kts | 128° |
| 2026-05-07 05:19 | 24.37001 | 54.74765 | 7040 ft | 211 kts | 136° |
| 2026-05-07 05:19 | 24.35794 | 54.75911 | 7314 ft | 246 kts | 141° |
| 2026-05-07 05:19 | 24.34484 | 54.77205 | 7761 ft | 258 kts | 128° |
| 2026-05-07 05:19 | 24.33410 | 54.78824 | 7874 ft | 266 kts | 122° |
| 2026-05-07 05:20 | 24.32359 | 54.80526 | 8030 ft | 271 kts | 123° |
| 2026-05-07 05:20 | 24.31221 | 54.82172 | 8301 ft | 271 kts | 127° |
| 2026-05-07 05:20 | 24.30034 | 54.83784 | 8554 ft | 272 kts | 127° |
| 2026-05-07 05:20 | 24.28858 | 54.85413 | 8809 ft | 273 kts | 126° |
| 2026-05-07 05:21 | 24.27757 | 54.87095 | 9018 ft | 271 kts | 113° |
| 2026-05-07 05:21 | 24.27785 | 54.91012 | 9435 ft | 262 kts | 62° |
| 2026-05-07 05:21 | 24.28901 | 54.92553 | 9638 ft | 260 kts | 38° |
| 2026-05-07 05:22 | 24.30312 | 54.93806 | 9845 ft | 262 kts | 39° |
| 2026-05-07 05:22 | 24.31833 | 54.94922 | 9873 ft | 267 kts | 19° |
| 2026-05-07 05:22 | 24.33660 | 54.95256 | 9883 ft | 268 kts | 356° |
| 2026-05-07 05:22 | 24.35511 | 54.94896 | 9994 ft | 280 kts | 353° |
| 2026-05-07 05:23 | 24.37490 | 54.94605 | 10640 ft | 288 kts | 354° |
| 2026-05-07 05:23 | 24.39496 | 54.94296 | 11496 ft | 295 kts | 354° |
| 2026-05-07 05:23 | 24.41550 | 54.93937 | 12317 ft | 302 kts | 353° |
| 2026-05-07 05:23 | 24.43643 | 54.93568 | 13122 ft | 309 kts | 354° |
| 2026-05-07 05:24 | 24.45791 | 54.93204 | 13915 ft | 315 kts | 355° |
| 2026-05-07 05:24 | 24.47977 | 54.92837 | 14686 ft | 320 kts | 354° |
| 2026-05-07 05:24 | 24.50172 | 54.92361 | 15447 ft | 326 kts | 342° |
| 2026-05-07 05:24 | 24.52301 | 54.91429 | 16182 ft | 331 kts | 341° |
| 2026-05-07 05:25 | 24.54479 | 54.90587 | 16976 ft | 334 kts | 342° |
| 2026-05-07 05:25 | 24.56683 | 54.89737 | 17729 ft | 339 kts | 341° |
| 2026-05-07 05:25 | 24.58909 | 54.88833 | 18424 ft | 343 kts | 340° |
| 2026-05-07 05:25 | 24.61102 | 54.87932 | 19062 ft | 346 kts | 339° |
| 2026-05-07 05:26 | 24.63377 | 54.87015 | 19720 ft | 350 kts | 339° |
| 2026-05-07 05:26 | 24.65694 | 54.86088 | 20374 ft | 353 kts | 339° |
| 2026-05-07 05:26 | 24.68014 | 54.85152 | 21069 ft | 355 kts | 338° |
| 2026-05-07 05:26 | 24.70342 | 54.84210 | 21725 ft | 358 kts | 338° |
| 2026-05-07 05:27 | 24.72683 | 54.83238 | 22360 ft | 360 kts | 333° |
| 2026-05-07 05:27 | 24.74701 | 54.81703 | 22989 ft | 357 kts | 312° |
| 2026-05-07 05:27 | 24.76129 | 54.79457 | 23560 ft | 356 kts | 291° |
| 2026-05-07 05:27 | 24.77086 | 54.76931 | 24029 ft | 359 kts | 289° |
| 2026-05-07 05:28 | 24.77971 | 54.74354 | 24583 ft | 360 kts | 288° |
| 2026-05-07 05:28 | 24.78854 | 54.71774 | 25110 ft | 361 kts | 289° |
| 2026-05-07 05:28 | 24.79776 | 54.69194 | 25637 ft | 363 kts | 289° |
| 2026-05-07 05:28 | 24.80657 | 54.66589 | 26131 ft | 363 kts | 281° |
| 2026-05-07 05:29 | 24.81183 | 54.63871 | 26601 ft | 364 kts | 281° |
| 2026-05-07 05:29 | 24.81765 | 54.61158 | 27110 ft | 366 kts | 281° |
| 2026-05-07 05:29 | 24.82357 | 54.58425 | 27609 ft | 367 kts | 281° |
| 2026-05-07 05:29 | 24.82923 | 54.55680 | 28100 ft | 369 kts | 280° |
| 2026-05-07 05:30 | 24.83485 | 54.52918 | 28576 ft | 371 kts | 280° |
| 2026-05-07 05:30 | 24.84060 | 54.50145 | 29057 ft | 373 kts | 280° |
| 2026-05-07 05:30 | 24.84642 | 54.47355 | 29515 ft | 374 kts | 280° |
| 2026-05-07 05:30 | 24.85027 | 54.45503 | 29839 ft | 375 kts | 280° |
| 2026-05-07 05:31 | 24.85618 | 54.42628 | 29863 ft | 382 kts | 280° |
| 2026-05-07 05:31 | 24.86801 | 54.36891 | 29866 ft | 398 kts | 280° |
| 2026-05-07 05:31 | 24.87422 | 54.33878 | 29869 ft | 410 kts | 280° |
| 2026-05-07 05:32 | 24.88062 | 54.30769 | 29882 ft | 422 kts | 280° |
| 2026-05-07 05:32 | 24.88719 | 54.27575 | 29886 ft | 433 kts | 280° |
| 2026-05-07 05:32 | 24.89393 | 54.24296 | 29885 ft | 444 kts | 280° |
| 2026-05-07 05:33 | 24.90948 | 54.17576 | 29907 ft | 464 kts | 289° |
| 2026-05-07 05:33 | 24.92354 | 54.14334 | 29900 ft | 476 kts | 298° |
| 2026-05-07 05:33 | 24.94302 | 54.11330 | 29899 ft | 488 kts | 308° |
| 2026-05-07 05:34 | 24.98880 | 54.05651 | 29879 ft | 502 kts | 308° |
| 2026-05-07 05:34 | 25.03584 | 53.99857 | 29879 ft | 511 kts | 308° |
| 2026-05-07 05:35 | 25.08313 | 53.93991 | 29867 ft | 512 kts | 308° |
| 2026-05-07 05:35 | 25.13033 | 53.88148 | 29872 ft | 511 kts | 308° |
| 2026-05-07 05:36 | 25.17760 | 53.82277 | 29872 ft | 510 kts | 308° |
| 2026-05-07 05:36 | 25.22743 | 53.76718 | 29874 ft | 514 kts | 316° |
| 2026-05-07 05:37 | 25.28246 | 53.71617 | 29873 ft | 515 kts | 316° |
| 2026-05-07 05:37 | 25.33740 | 53.66537 | 29871 ft | 515 kts | 316° |
| 2026-05-07 05:38 | 25.39221 | 53.61451 | 29870 ft | 514 kts | 316° |
| 2026-05-07 05:38 | 25.44710 | 53.56357 | 29868 ft | 515 kts | 316° |
| 2026-05-07 05:39 | 25.50164 | 53.51292 | 29866 ft | 515 kts | 316° |
| 2026-05-07 05:39 | 25.55649 | 53.46191 | 29868 ft | 514 kts | 315° |
| 2026-05-07 05:40 | 25.61120 | 53.41096 | 29867 ft | 513 kts | 315° |
| 2026-05-07 05:40 | 25.66469 | 53.35866 | 29862 ft | 513 kts | 315° |
| 2026-05-07 05:41 | 25.71840 | 53.30657 | 29861 ft | 512 kts | 314° |
| 2026-05-07 05:41 | 25.77152 | 53.25440 | 29863 ft | 512 kts | 314° |
| 2026-05-07 05:42 | 25.82406 | 53.20092 | 29861 ft | 506 kts | 307° |
| 2026-05-07 05:42 | 25.86207 | 53.13609 | 29862 ft | 497 kts | 290° |
| 2026-05-07 05:43 | 25.89049 | 53.06658 | 29856 ft | 498 kts | 290° |
| 2026-05-07 05:43 | 25.91890 | 52.99643 | 29851 ft | 498 kts | 290° |
| 2026-05-07 05:44 | 25.94741 | 52.92631 | 29856 ft | 497 kts | 290° |
| 2026-05-07 05:44 | 25.97578 | 52.85621 | 29862 ft | 498 kts | 290° |
| 2026-05-07 05:45 | 26.00417 | 52.78607 | 29857 ft | 498 kts | 290° |
| 2026-05-07 05:45 | 26.03391 | 52.71644 | 29853 ft | 498 kts | 293° |
| 2026-05-07 05:46 | 26.06485 | 52.64744 | 29853 ft | 498 kts | 292° |
| 2026-05-07 05:46 | 26.09591 | 52.57851 | 29851 ft | 496 kts | 292° |
| 2026-05-07 05:47 | 26.12658 | 52.51018 | 29856 ft | 497 kts | 292° |
| 2026-05-07 05:47 | 26.15762 | 52.44150 | 29849 ft | 498 kts | 292° |
| 2026-05-07 05:48 | 26.18867 | 52.37246 | 29859 ft | 498 kts | 292° |
| 2026-05-07 05:48 | 26.21965 | 52.30357 | 29861 ft | 497 kts | 292° |
| 2026-05-07 05:49 | 26.24960 | 52.23444 | 29866 ft | 494 kts | 291° |
| 2026-05-07 05:49 | 26.27927 | 52.16571 | 29859 ft | 496 kts | 292° |
| 2026-05-07 05:50 | 26.30924 | 52.09655 | 29856 ft | 496 kts | 291° |
| 2026-05-07 05:50 | 26.33919 | 52.02705 | 29870 ft | 496 kts | 292° |
| 2026-05-07 05:51 | 26.36903 | 51.95812 | 29854 ft | 494 kts | 291° |
| 2026-05-07 05:51 | 26.39397 | 51.88704 | 29860 ft | 493 kts | 287° |
| 2026-05-07 05:52 | 26.41842 | 51.81553 | 29862 ft | 493 kts | 287° |
| 2026-05-07 05:52 | 26.44223 | 51.74381 | 29866 ft | 493 kts | 287° |
| 2026-05-07 05:53 | 26.46631 | 51.67227 | 29867 ft | 492 kts | 286° |
| 2026-05-07 05:53 | 26.49016 | 51.60063 | 29871 ft | 492 kts | 286° |
| 2026-05-07 05:54 | 26.51398 | 51.52910 | 29875 ft | 492 kts | 286° |
| 2026-05-07 05:54 | 26.53775 | 51.45756 | 29875 ft | 491 kts | 286° |
| 2026-05-07 05:55 | 26.56146 | 51.38604 | 29872 ft | 490 kts | 286° |
| 2026-05-07 05:55 | 26.58508 | 51.31466 | 29871 ft | 490 kts | 286° |
| 2026-05-07 05:56 | 26.60871 | 51.24326 | 29869 ft | 489 kts | 286° |
| 2026-05-07 05:56 | 26.63228 | 51.17217 | 29871 ft | 487 kts | 286° |
| 2026-05-07 05:57 | 26.65551 | 51.10175 | 29873 ft | 485 kts | 286° |
| 2026-05-07 05:57 | 26.67884 | 51.03101 | 29870 ft | 486 kts | 286° |
| 2026-05-07 05:58 | 26.70207 | 50.95946 | 29871 ft | 487 kts | 285° |
| 2026-05-07 05:58 | 26.72457 | 50.88854 | 29872 ft | 488 kts | 285° |
| 2026-05-07 05:59 | 26.74762 | 50.81681 | 29874 ft | 487 kts | 285° |
| 2026-05-07 05:59 | 26.75885 | 50.78156 | 29863 ft | 474 kts | 285° |
| 2026-05-07 05:59 | 26.76977 | 50.74730 | 29861 ft | 462 kts | 285° |
| 2026-05-07 06:00 | 26.79148 | 50.67978 | 29865 ft | 464 kts | 289° |
| 2026-05-07 06:00 | 26.82532 | 50.61773 | 29886 ft | 473 kts | 304° |
| 2026-05-07 06:01 | 26.86672 | 50.56092 | 29867 ft | 468 kts | 303° |
| 2026-05-07 06:01 | 26.90807 | 50.50419 | 30199 ft | 471 kts | 303° |
| 2026-05-07 06:01 | 26.92979 | 50.47657 | 30587 ft | 473 kts | 308° |
| 2026-05-07 06:02 | 26.95221 | 50.45019 | 30929 ft | 472 kts | 307° |
| 2026-05-07 06:02 | 26.97485 | 50.42308 | 31299 ft | 470 kts | 307° |
| 2026-05-07 06:02 | 26.99718 | 50.39640 | 31659 ft | 469 kts | 307° |
| 2026-05-07 06:02 | 27.01957 | 50.36985 | 32014 ft | 468 kts | 307° |
| 2026-05-07 06:03 | 27.04201 | 50.34322 | 32374 ft | 467 kts | 306° |
| 2026-05-07 06:03 | 27.06415 | 50.31675 | 32737 ft | 466 kts | 306° |
| 2026-05-07 06:03 | 27.08590 | 50.29037 | 33064 ft | 465 kts | 305° |
| 2026-05-07 06:03 | 27.10813 | 50.26335 | 33429 ft | 464 kts | 305° |
| 2026-05-07 06:04 | 27.13010 | 50.23686 | 33775 ft | 464 kts | 305° |
| 2026-05-07 06:04 | 27.15183 | 50.21083 | 34076 ft | 464 kts | 307° |
| 2026-05-07 06:04 | 27.17655 | 50.18682 | 34360 ft | 473 kts | 316° |
| 2026-05-07 06:04 | 27.20340 | 50.16462 | 34635 ft | 473 kts | 315° |
| 2026-05-07 06:05 | 27.22989 | 50.14278 | 34954 ft | 471 kts | 315° |
| 2026-05-07 06:05 | 27.25585 | 50.12140 | 35278 ft | 469 kts | 315° |
| 2026-05-07 06:05 | 27.28250 | 50.09940 | 35590 ft | 467 kts | 315° |
| 2026-05-07 06:05 | 27.30828 | 50.07807 | 35904 ft | 466 kts | 314° |
| 2026-05-07 06:06 | 27.33468 | 50.05623 | 36213 ft | 464 kts | 314° |
| 2026-05-07 06:06 | 27.36023 | 50.03507 | 36509 ft | 462 kts | 313° |
| 2026-05-07 06:06 | 27.38539 | 50.01280 | 36774 ft | 459 kts | 313° |
| 2026-05-07 06:06 | 27.41054 | 49.99080 | 37058 ft | 458 kts | 313° |
| 2026-05-07 06:07 | 27.43569 | 49.96889 | 37334 ft | 456 kts | 313° |
| 2026-05-07 06:07 | 27.46060 | 49.94695 | 37612 ft | 454 kts | 312° |
| 2026-05-07 06:07 | 27.48546 | 49.92497 | 37883 ft | 453 kts | 312° |
| 2026-05-07 06:08 | 27.53546 | 49.88093 | 37896 ft | 456 kts | 312° |
| 2026-05-07 06:08 | 27.58524 | 49.83709 | 37900 ft | 452 kts | 312° |
| 2026-05-07 06:09 | 27.63472 | 49.79335 | 37903 ft | 452 kts | 312° |
| 2026-05-07 06:09 | 27.68424 | 49.74961 | 37900 ft | 453 kts | 312° |
| 2026-05-07 06:10 | 27.73395 | 49.70559 | 37910 ft | 454 kts | 312° |
| 2026-05-07 06:10 | 27.78365 | 49.66157 | 37920 ft | 455 kts | 312° |
| 2026-05-07 06:11 | 27.83323 | 49.61731 | 37930 ft | 455 kts | 312° |
| 2026-05-07 06:11 | 27.88311 | 49.57276 | 37922 ft | 457 kts | 312° |
| 2026-05-07 06:12 | 27.93294 | 49.52821 | 37930 ft | 457 kts | 312° |
| 2026-05-07 06:12 | 27.98276 | 49.48361 | 37938 ft | 456 kts | 312° |
| 2026-05-07 06:13 | 28.03247 | 49.43906 | 37938 ft | 455 kts | 312° |
| 2026-05-07 06:13 | 28.08162 | 49.39417 | 37942 ft | 453 kts | 311° |
| 2026-05-07 06:14 | 28.13060 | 49.34948 | 37942 ft | 452 kts | 311° |
| 2026-05-07 06:14 | 28.17950 | 49.30482 | 37934 ft | 451 kts | 311° |
| 2026-05-07 06:15 | 28.22803 | 49.26041 | 37942 ft | 450 kts | 311° |
| 2026-05-07 06:15 | 28.27665 | 49.21591 | 37938 ft | 449 kts | 311° |
| 2026-05-07 06:16 | 28.32516 | 49.17143 | 37941 ft | 448 kts | 311° |
| 2026-05-07 06:16 | 28.37326 | 49.12727 | 37947 ft | 448 kts | 311° |
| 2026-05-07 06:17 | 28.42426 | 49.08498 | 37933 ft | 455 kts | 316° |
| 2026-05-07 06:17 | 28.47661 | 49.04450 | 37948 ft | 455 kts | 316° |
| 2026-05-07 06:18 | 28.52068 | 49.01082 | 37950 ft | 455 kts | 316° |
| 2026-05-07 06:18 | 28.57312 | 48.97057 | 37946 ft | 454 kts | 316° |
| 2026-05-07 06:19 | 28.62551 | 48.93027 | 37947 ft | 454 kts | 316° |
| 2026-05-07 06:19 | 28.67783 | 48.89003 | 37948 ft | 453 kts | 316° |
| 2026-05-07 06:20 | 28.72958 | 48.85013 | 37938 ft | 452 kts | 316° |
| 2026-05-07 06:20 | 28.78156 | 48.81005 | 37951 ft | 451 kts | 316° |
| 2026-05-07 06:21 | 28.83347 | 48.77005 | 37944 ft | 451 kts | 316° |
| 2026-05-07 06:21 | 28.88546 | 48.73040 | 37943 ft | 450 kts | 316° |
| 2026-05-07 06:22 | 28.93752 | 48.69037 | 37949 ft | 451 kts | 316° |
| 2026-05-07 06:22 | 29.01583 | 48.63026 | 37939 ft | 453 kts | 316° |
| 2026-05-07 06:23 | 29.06826 | 48.58992 | 37949 ft | 453 kts | 316° |
| 2026-05-07 06:23 | 29.12042 | 48.54976 | 37946 ft | 452 kts | 316° |
| 2026-05-07 06:24 | 29.17246 | 48.50962 | 37942 ft | 450 kts | 316° |
| 2026-05-07 06:24 | 29.22440 | 48.46951 | 37945 ft | 450 kts | 316° |
| 2026-05-07 06:25 | 29.27626 | 48.42940 | 37939 ft | 451 kts | 316° |
| 2026-05-07 06:25 | 29.32836 | 48.38908 | 37943 ft | 453 kts | 316° |
| 2026-05-07 06:26 | 29.38066 | 48.34854 | 37947 ft | 454 kts | 316° |
| 2026-05-07 06:26 | 29.43291 | 48.30805 | 37929 ft | 453 kts | 317° |
| 2026-05-07 06:27 | 29.48798 | 48.27157 | 37937 ft | 457 kts | 320° |
| 2026-05-07 06:27 | 29.54279 | 48.23526 | 37945 ft | 458 kts | 320° |
| 2026-05-07 06:28 | 29.59838 | 48.19881 | 37937 ft | 458 kts | 320° |
| 2026-05-07 06:28 | 29.65365 | 48.16227 | 37944 ft | 457 kts | 320° |
| 2026-05-07 06:29 | 29.70850 | 48.12610 | 37941 ft | 457 kts | 320° |
| 2026-05-07 06:29 | 29.76361 | 48.08965 | 37940 ft | 457 kts | 320° |
| 2026-05-07 06:30 | 29.81852 | 48.05332 | 37945 ft | 456 kts | 320° |
| 2026-05-07 06:30 | 29.87362 | 48.01678 | 37939 ft | 457 kts | 320° |
| 2026-05-07 06:31 | 29.92902 | 47.98003 | 37943 ft | 458 kts | 320° |
| 2026-05-07 06:31 | 29.98436 | 47.94325 | 37943 ft | 459 kts | 320° |
| 2026-05-07 06:32 | 30.03441 | 47.90052 | 37967 ft | 438 kts | 304° |
| 2026-05-07 06:32 | 30.07441 | 47.84842 | 37942 ft | 432 kts | 302° |
| 2026-05-07 06:33 | 30.11407 | 47.79576 | 37951 ft | 437 kts | 301° |
| 2026-05-07 06:33 | 30.15413 | 47.74210 | 37951 ft | 446 kts | 302° |
| 2026-05-07 06:34 | 30.19521 | 47.68728 | 37953 ft | 454 kts | 301° |
| 2026-05-07 06:34 | 30.23673 | 47.63162 | 37949 ft | 461 kts | 302° |
| 2026-05-07 06:35 | 30.27892 | 47.57509 | 37960 ft | 467 kts | 302° |
| 2026-05-07 06:35 | 30.32093 | 47.51869 | 37961 ft | 466 kts | 302° |
| 2026-05-07 06:36 | 30.36323 | 47.46180 | 37960 ft | 465 kts | 301° |
| 2026-05-07 06:36 | 30.40543 | 47.40496 | 37961 ft | 465 kts | 301° |
| 2026-05-07 06:37 | 30.44762 | 47.34806 | 37951 ft | 466 kts | 301° |
| 2026-05-07 06:37 | 30.48977 | 47.29113 | 37962 ft | 466 kts | 301° |
| 2026-05-07 06:38 | 30.53225 | 47.23367 | 37974 ft | 465 kts | 301° |
| 2026-05-07 06:38 | 30.57349 | 47.17781 | 37979 ft | 464 kts | 301° |
| 2026-05-07 06:39 | 30.61576 | 47.12050 | 37974 ft | 464 kts | 301° |
| 2026-05-07 06:39 | 30.65780 | 47.06340 | 37981 ft | 464 kts | 301° |
| 2026-05-07 06:40 | 30.69941 | 47.00682 | 37983 ft | 463 kts | 301° |
| 2026-05-07 06:40 | 30.74154 | 46.94946 | 37983 ft | 462 kts | 301° |
| 2026-05-07 06:41 | 30.78283 | 46.89315 | 37987 ft | 461 kts | 301° |
| 2026-05-07 06:41 | 30.82477 | 46.83584 | 37986 ft | 463 kts | 301° |
| 2026-05-07 06:42 | 30.86659 | 46.77866 | 37995 ft | 464 kts | 301° |
| 2026-05-07 06:42 | 30.90814 | 46.72175 | 37994 ft | 464 kts | 301° |
| 2026-05-07 06:43 | 30.94976 | 46.66465 | 37996 ft | 462 kts | 301° |
| 2026-05-07 06:43 | 30.99119 | 46.60773 | 38003 ft | 460 kts | 301° |
| 2026-05-07 06:44 | 31.03271 | 46.55058 | 38004 ft | 462 kts | 301° |
| 2026-05-07 06:44 | 31.07428 | 46.49331 | 38010 ft | 463 kts | 301° |
| 2026-05-07 06:45 | 31.11579 | 46.43602 | 37998 ft | 464 kts | 301° |
| 2026-05-07 06:45 | 31.15745 | 46.37847 | 38004 ft | 462 kts | 300° |
| 2026-05-07 06:46 | 31.19909 | 46.32111 | 38010 ft | 463 kts | 303° |
| 2026-05-07 06:46 | 31.22252 | 46.29492 | 38012 ft | 474 kts | 310° |
| 2026-05-07 06:46 | 31.24769 | 46.26983 | 38012 ft | 475 kts | 309° |
| 2026-05-07 06:47 | 31.29713 | 46.22003 | 38024 ft | 475 kts | 309° |
| 2026-05-07 06:47 | 31.34791 | 46.16907 | 38033 ft | 475 kts | 309° |
| 2026-05-07 06:48 | 31.39800 | 46.11859 | 38032 ft | 475 kts | 309° |
| 2026-05-07 06:48 | 31.44833 | 46.06786 | 38039 ft | 474 kts | 309° |
| 2026-05-07 06:49 | 31.49824 | 46.01746 | 38030 ft | 474 kts | 309° |
| 2026-05-07 06:49 | 31.54792 | 45.96721 | 38037 ft | 475 kts | 309° |
| 2026-05-07 06:50 | 31.59802 | 45.91647 | 38042 ft | 477 kts | 309° |
| 2026-05-07 06:50 | 31.64873 | 45.86503 | 38048 ft | 479 kts | 309° |
| 2026-05-07 06:51 | 31.69865 | 45.81435 | 38051 ft | 478 kts | 309° |
| 2026-05-07 06:51 | 31.74896 | 45.76316 | 38044 ft | 476 kts | 309° |
| 2026-05-07 06:52 | 31.79898 | 45.71220 | 38054 ft | 476 kts | 309° |
| 2026-05-07 06:52 | 31.84899 | 45.66116 | 38058 ft | 478 kts | 309° |
| 2026-05-07 06:53 | 31.89935 | 45.60971 | 38055 ft | 480 kts | 309° |
| 2026-05-07 06:53 | 31.94973 | 45.55817 | 38055 ft | 479 kts | 309° |
| 2026-05-07 06:54 | 31.99990 | 45.50674 | 38060 ft | 478 kts | 309° |
| 2026-05-07 06:54 | 32.05016 | 45.45515 | 38063 ft | 477 kts | 309° |
| 2026-05-07 06:55 | 32.10012 | 45.40378 | 38067 ft | 477 kts | 309° |
| 2026-05-07 06:55 | 32.15013 | 45.35228 | 38057 ft | 477 kts | 309° |
| 2026-05-07 06:56 | 32.19985 | 45.30104 | 38071 ft | 477 kts | 309° |
| 2026-05-07 06:56 | 32.24982 | 45.24942 | 38075 ft | 477 kts | 309° |
| 2026-05-07 06:57 | 32.29985 | 45.19768 | 38074 ft | 477 kts | 309° |
| 2026-05-07 06:57 | 32.34974 | 45.14600 | 38079 ft | 477 kts | 309° |
| 2026-05-07 06:58 | 32.39961 | 45.09427 | 38081 ft | 476 kts | 309° |
| 2026-05-07 06:58 | 32.44938 | 45.04255 | 38084 ft | 476 kts | 309° |
| 2026-05-07 06:59 | 32.49896 | 44.99095 | 38084 ft | 477 kts | 309° |
| 2026-05-07 06:59 | 32.54885 | 44.93895 | 38086 ft | 478 kts | 309° |
| 2026-05-07 07:00 | 32.59879 | 44.88684 | 38082 ft | 478 kts | 309° |
| 2026-05-07 07:00 | 32.64029 | 44.84346 | 38093 ft | 478 kts | 309° |
| 2026-05-07 07:01 | 32.69017 | 44.79125 | 38092 ft | 477 kts | 309° |
| 2026-05-07 07:01 | 32.73997 | 44.73903 | 38087 ft | 478 kts | 309° |
| 2026-05-07 07:02 | 32.78997 | 44.68653 | 38089 ft | 480 kts | 309° |
| 2026-05-07 07:02 | 32.83998 | 44.63393 | 38080 ft | 481 kts | 309° |
| 2026-05-07 07:03 | 32.89013 | 44.58111 | 38082 ft | 481 kts | 309° |
| 2026-05-07 07:03 | 32.94020 | 44.52829 | 38083 ft | 481 kts | 309° |
| 2026-05-07 07:04 | 32.99018 | 44.47548 | 38086 ft | 480 kts | 309° |
| 2026-05-07 07:04 | 33.03986 | 44.42291 | 38083 ft | 480 kts | 309° |
| 2026-05-07 07:05 | 33.08975 | 44.37002 | 38083 ft | 480 kts | 309° |
| 2026-05-07 07:05 | 33.13996 | 44.31748 | 38091 ft | 484 kts | 314° |
| 2026-05-07 07:06 | 33.16827 | 44.29482 | 38097 ft | 496 kts | 321° |
| 2026-05-07 07:06 | 33.19962 | 44.27664 | 38100 ft | 509 kts | 329° |
| 2026-05-07 07:06 | 33.23379 | 44.26345 | 38104 ft | 520 kts | 335° |
| 2026-05-07 07:06 | 33.26868 | 44.25191 | 38084 ft | 520 kts | 335° |
| 2026-05-07 07:07 | 33.33846 | 44.22892 | 38083 ft | 520 kts | 335° |
| 2026-05-07 07:07 | 33.40815 | 44.20594 | 38082 ft | 518 kts | 335° |
| 2026-05-07 07:08 | 33.47716 | 44.18311 | 38086 ft | 517 kts | 335° |
| 2026-05-07 07:08 | 33.54697 | 44.16001 | 38086 ft | 517 kts | 335° |
| 2026-05-07 07:09 | 33.61586 | 44.13715 | 38079 ft | 518 kts | 335° |
| 2026-05-07 07:09 | 33.68542 | 44.11405 | 38087 ft | 519 kts | 335° |
| 2026-05-07 07:10 | 33.75498 | 44.09090 | 38089 ft | 519 kts | 335° |
| 2026-05-07 07:10 | 33.82473 | 44.06765 | 38082 ft | 520 kts | 335° |
| 2026-05-07 07:11 | 33.89433 | 44.04443 | 38083 ft | 518 kts | 335° |
| 2026-05-07 07:11 | 33.96377 | 44.02120 | 38065 ft | 516 kts | 335° |
| 2026-05-07 07:12 | 34.03238 | 43.99820 | 38085 ft | 516 kts | 335° |
| 2026-05-07 07:12 | 34.10155 | 43.97499 | 38089 ft | 517 kts | 335° |
| 2026-05-07 07:13 | 34.17099 | 43.95165 | 38088 ft | 518 kts | 335° |
| 2026-05-07 07:13 | 34.24039 | 43.92829 | 38083 ft | 517 kts | 335° |
| 2026-05-07 07:14 | 34.30965 | 43.90493 | 38095 ft | 516 kts | 335° |
| 2026-05-07 07:14 | 34.37860 | 43.88163 | 38094 ft | 514 kts | 335° |
| 2026-05-07 07:15 | 34.44754 | 43.85829 | 38091 ft | 514 kts | 335° |
| 2026-05-07 07:15 | 34.51649 | 43.83491 | 38094 ft | 514 kts | 335° |
| 2026-05-07 07:16 | 34.58535 | 43.81153 | 38080 ft | 514 kts | 335° |
| 2026-05-07 07:16 | 34.65424 | 43.78809 | 38090 ft | 513 kts | 334° |
| 2026-05-07 07:17 | 34.72293 | 43.76468 | 38095 ft | 512 kts | 334° |
| 2026-05-07 07:17 | 34.79121 | 43.74138 | 38090 ft | 512 kts | 334° |
| 2026-05-07 07:18 | 34.85980 | 43.71791 | 38092 ft | 512 kts | 334° |
| 2026-05-07 07:18 | 34.92848 | 43.69439 | 38093 ft | 514 kts | 334° |
| 2026-05-07 07:19 | 34.99747 | 43.67071 | 38091 ft | 515 kts | 334° |
| 2026-05-07 07:19 | 35.06639 | 43.64704 | 38095 ft | 513 kts | 334° |
| 2026-05-07 07:20 | 35.13512 | 43.62335 | 38097 ft | 513 kts | 334° |
| 2026-05-07 07:20 | 35.20386 | 43.59964 | 38095 ft | 513 kts | 334° |
| 2026-05-07 07:21 | 35.27223 | 43.57601 | 38095 ft | 514 kts | 334° |
| 2026-05-07 07:21 | 35.34103 | 43.55219 | 38095 ft | 514 kts | 335° |
| 2026-05-07 07:22 | 35.40994 | 43.52830 | 38101 ft | 515 kts | 335° |
| 2026-05-07 07:22 | 35.47900 | 43.50430 | 38103 ft | 516 kts | 335° |
| 2026-05-07 07:23 | 35.54799 | 43.48030 | 38093 ft | 516 kts | 335° |
| 2026-05-07 07:23 | 35.61711 | 43.45620 | 38097 ft | 515 kts | 335° |
| 2026-05-07 07:24 | 35.68606 | 43.43211 | 38101 ft | 515 kts | 335° |
| 2026-05-07 07:24 | 35.75505 | 43.40797 | 38103 ft | 515 kts | 335° |
| 2026-05-07 07:25 | 35.85795 | 43.37188 | 38096 ft | 516 kts | 335° |
| 2026-05-07 07:26 | 35.92707 | 43.34758 | 38105 ft | 517 kts | 335° |
| 2026-05-07 07:26 | 35.99644 | 43.32315 | 38104 ft | 519 kts | 335° |
| 2026-05-07 07:27 | 36.06593 | 43.29865 | 38100 ft | 518 kts | 335° |
| 2026-05-07 07:27 | 36.13270 | 43.26804 | 38105 ft | 508 kts | 328° |
| 2026-05-07 07:28 | 36.19735 | 43.23249 | 38101 ft | 509 kts | 327° |
| 2026-05-07 07:28 | 36.26208 | 43.19687 | 38105 ft | 509 kts | 328° |
| 2026-05-07 07:29 | 36.32680 | 43.16118 | 38108 ft | 509 kts | 328° |
| 2026-05-07 07:29 | 36.39150 | 43.12543 | 38106 ft | 508 kts | 328° |
| 2026-05-07 07:30 | 36.45612 | 43.08968 | 38113 ft | 508 kts | 328° |
| 2026-05-07 07:30 | 36.52020 | 43.05414 | 38108 ft | 507 kts | 328° |
| 2026-05-07 07:31 | 36.58479 | 43.01826 | 38101 ft | 509 kts | 328° |
| 2026-05-07 07:31 | 36.64953 | 42.98224 | 38112 ft | 510 kts | 328° |
| 2026-05-07 07:32 | 36.71439 | 42.94607 | 38111 ft | 511 kts | 328° |
| 2026-05-07 07:32 | 36.77938 | 42.90977 | 38113 ft | 512 kts | 328° |
| 2026-05-07 07:33 | 36.84477 | 42.87387 | 38109 ft | 513 kts | 328° |
| 2026-05-07 07:33 | 36.90996 | 42.83788 | 38112 ft | 512 kts | 328° |
| 2026-05-07 07:34 | 36.97473 | 42.80205 | 38116 ft | 511 kts | 328° |
| 2026-05-07 07:34 | 37.03970 | 42.76607 | 38117 ft | 512 kts | 328° |
| 2026-05-07 07:35 | 37.10491 | 42.72987 | 38116 ft | 513 kts | 328° |
| 2026-05-07 07:35 | 37.17023 | 42.69357 | 38122 ft | 514 kts | 328° |
| 2026-05-07 07:36 | 37.23316 | 42.65242 | 38125 ft | 503 kts | 316° |
| 2026-05-07 07:36 | 37.28247 | 42.59366 | 38134 ft | 485 kts | 300° |
| 2026-05-07 07:37 | 37.32316 | 42.52631 | 38121 ft | 484 kts | 300° |
| 2026-05-07 07:37 | 37.36355 | 42.45873 | 38121 ft | 483 kts | 300° |
| 2026-05-07 07:38 | 37.40402 | 42.39113 | 38116 ft | 484 kts | 301° |
| 2026-05-07 07:38 | 37.44443 | 42.32340 | 38117 ft | 483 kts | 300° |
| 2026-05-07 07:39 | 37.48479 | 42.25559 | 38120 ft | 484 kts | 301° |
| 2026-05-07 07:39 | 37.52524 | 42.18751 | 38119 ft | 485 kts | 301° |
| 2026-05-07 07:40 | 37.56558 | 42.11949 | 38118 ft | 483 kts | 301° |
| 2026-05-07 07:40 | 37.60553 | 42.05196 | 38125 ft | 483 kts | 301° |
| 2026-05-07 07:41 | 37.64569 | 41.98394 | 38112 ft | 484 kts | 301° |
| 2026-05-07 07:41 | 37.68589 | 41.91573 | 38120 ft | 484 kts | 301° |
| 2026-05-07 07:42 | 37.72619 | 41.84719 | 38129 ft | 485 kts | 301° |
| 2026-05-07 07:42 | 37.76646 | 41.77857 | 38122 ft | 486 kts | 301° |
| 2026-05-07 07:43 | 37.80641 | 41.71042 | 38131 ft | 485 kts | 301° |
| 2026-05-07 07:43 | 37.84680 | 41.64137 | 38126 ft | 486 kts | 301° |
| 2026-05-07 07:44 | 37.88672 | 41.57298 | 38127 ft | 486 kts | 301° |
| 2026-05-07 07:44 | 37.92689 | 41.50404 | 38130 ft | 486 kts | 301° |
| 2026-05-07 07:45 | 37.96705 | 41.43495 | 38134 ft | 486 kts | 301° |
| 2026-05-07 07:45 | 38.00714 | 41.36583 | 38127 ft | 486 kts | 301° |
| 2026-05-07 07:46 | 38.04719 | 41.29665 | 38136 ft | 487 kts | 301° |
| 2026-05-07 07:46 | 38.08724 | 41.22733 | 38136 ft | 486 kts | 301° |
| 2026-05-07 07:47 | 38.12716 | 41.15805 | 38136 ft | 485 kts | 300° |
| 2026-05-07 07:47 | 38.15741 | 41.08354 | 38135 ft | 475 kts | 288° |
| 2026-05-07 07:48 | 38.18193 | 41.00535 | 38129 ft | 477 kts | 287° |
| 2026-05-07 07:48 | 38.20629 | 40.92682 | 38131 ft | 477 kts | 288° |
| 2026-05-07 07:49 | 38.22664 | 40.86137 | 38127 ft | 478 kts | 288° |
| 2026-05-07 07:49 | 38.25088 | 40.78272 | 38131 ft | 477 kts | 287° |
| 2026-05-07 07:50 | 38.27817 | 40.69099 | 38135 ft | 477 kts | 287° |
| 2026-05-07 07:50 | 38.30197 | 40.61204 | 38120 ft | 477 kts | 287° |
| 2026-05-07 07:51 | 38.32152 | 40.54633 | 38120 ft | 478 kts | 287° |
| 2026-05-07 07:51 | 38.34523 | 40.46687 | 38116 ft | 480 kts | 287° |
| 2026-05-07 07:52 | 38.36891 | 40.38711 | 38132 ft | 481 kts | 287° |
| 2026-05-07 07:52 | 38.39240 | 40.30782 | 38131 ft | 481 kts | 287° |
| 2026-05-07 07:53 | 38.41593 | 40.22814 | 38136 ft | 481 kts | 287° |
| 2026-05-07 07:53 | 38.43950 | 40.14809 | 38137 ft | 481 kts | 287° |
| 2026-05-07 07:54 | 38.46296 | 40.06818 | 38141 ft | 480 kts | 287° |
| 2026-05-07 07:54 | 38.48633 | 39.98834 | 38148 ft | 481 kts | 287° |
| 2026-05-07 07:55 | 38.50978 | 39.90798 | 38150 ft | 483 kts | 287° |
| 2026-05-07 07:55 | 38.53321 | 39.82747 | 38147 ft | 484 kts | 287° |
| 2026-05-07 07:56 | 38.55644 | 39.74741 | 38150 ft | 483 kts | 288° |
| 2026-05-07 07:56 | 38.57966 | 39.66713 | 38156 ft | 480 kts | 287° |
| 2026-05-07 07:57 | 38.60281 | 39.58683 | 38161 ft | 482 kts | 288° |
| 2026-05-07 07:57 | 38.62599 | 39.50620 | 38163 ft | 482 kts | 288° |
| 2026-05-07 07:58 | 38.64946 | 39.42617 | 38171 ft | 481 kts | 288° |
| 2026-05-07 07:58 | 38.67277 | 39.34631 | 38165 ft | 482 kts | 288° |
| 2026-05-07 07:59 | 38.69618 | 39.26578 | 38164 ft | 483 kts | 288° |
| 2026-05-07 07:59 | 38.71440 | 39.18347 | 38162 ft | 481 kts | 279° |
| 2026-05-07 08:00 | 38.72698 | 39.09905 | 38162 ft | 482 kts | 279° |
| 2026-05-07 08:00 | 38.73951 | 39.01469 | 38161 ft | 482 kts | 279° |
| 2026-05-07 08:01 | 38.75198 | 38.93039 | 38164 ft | 480 kts | 279° |
| 2026-05-07 08:01 | 38.76448 | 38.84631 | 38173 ft | 481 kts | 279° |
| 2026-05-07 08:02 | 38.77732 | 38.76208 | 38166 ft | 482 kts | 279° |
| 2026-05-07 08:02 | 38.78981 | 38.67810 | 38175 ft | 483 kts | 279° |
| 2026-05-07 08:03 | 38.80247 | 38.59345 | 38174 ft | 483 kts | 279° |
| 2026-05-07 08:03 | 38.81500 | 38.50880 | 38177 ft | 482 kts | 279° |
| 2026-05-07 08:04 | 38.82747 | 38.42435 | 38178 ft | 481 kts | 279° |
| 2026-05-07 08:04 | 38.83984 | 38.33998 | 38177 ft | 482 kts | 279° |
| 2026-05-07 08:05 | 38.85218 | 38.25543 | 38179 ft | 482 kts | 279° |
| 2026-05-07 08:05 | 38.86446 | 38.17079 | 38178 ft | 483 kts | 279° |
| 2026-05-07 08:06 | 38.87673 | 38.08587 | 38174 ft | 484 kts | 280° |
| 2026-05-07 08:06 | 38.88887 | 38.00135 | 38171 ft | 484 kts | 280° |
| 2026-05-07 08:07 | 38.90099 | 37.91649 | 38175 ft | 483 kts | 279° |
| 2026-05-07 08:07 | 38.91304 | 37.83171 | 38175 ft | 482 kts | 279° |
| 2026-05-07 08:08 | 38.92497 | 37.74724 | 38183 ft | 483 kts | 279° |
| 2026-05-07 08:08 | 38.93690 | 37.66235 | 38183 ft | 484 kts | 280° |
| 2026-05-07 08:09 | 38.94889 | 37.57658 | 38183 ft | 483 kts | 280° |
| 2026-05-07 08:09 | 38.96060 | 37.49231 | 38184 ft | 483 kts | 279° |
| 2026-05-07 08:10 | 38.97235 | 37.40737 | 38178 ft | 482 kts | 280° |
| 2026-05-07 08:10 | 38.98401 | 37.32253 | 38178 ft | 482 kts | 280° |
| 2026-05-07 08:11 | 38.99563 | 37.23749 | 38185 ft | 483 kts | 280° |
| 2026-05-07 08:11 | 39.00722 | 37.15224 | 38183 ft | 483 kts | 280° |
| 2026-05-07 08:12 | 39.01871 | 37.06720 | 38192 ft | 483 kts | 280° |
| 2026-05-07 08:12 | 39.03015 | 36.98203 | 38195 ft | 483 kts | 280° |
| 2026-05-07 08:13 | 39.04151 | 36.89704 | 38193 ft | 482 kts | 280° |
| 2026-05-07 08:13 | 39.05282 | 36.81192 | 38190 ft | 482 kts | 280° |
| 2026-05-07 08:14 | 39.06405 | 36.72684 | 38192 ft | 483 kts | 280° |
| 2026-05-07 08:14 | 39.07437 | 36.64830 | 38197 ft | 484 kts | 280° |
| 2026-05-07 08:15 | 39.08554 | 36.56273 | 38199 ft | 485 kts | 280° |
| 2026-05-07 08:15 | 39.09656 | 36.47782 | 38197 ft | 483 kts | 280° |
| 2026-05-07 08:16 | 39.10755 | 36.39270 | 38195 ft | 482 kts | 280° |
| 2026-05-07 08:16 | 39.11844 | 36.30784 | 38183 ft | 481 kts | 280° |
| 2026-05-07 08:17 | 39.12922 | 36.22330 | 38183 ft | 483 kts | 280° |
| 2026-05-07 08:17 | 39.14008 | 36.13763 | 38190 ft | 484 kts | 280° |
| 2026-05-07 08:18 | 39.15117 | 36.05241 | 38191 ft | 482 kts | 285° |
| 2026-05-07 08:18 | 39.17580 | 35.97223 | 38189 ft | 482 kts | 296° |
| 2026-05-07 08:19 | 39.20591 | 35.89483 | 38198 ft | 482 kts | 297° |
| 2026-05-07 08:19 | 39.23570 | 35.81826 | 38197 ft | 481 kts | 296° |
| 2026-05-07 08:20 | 39.26566 | 35.74084 | 38196 ft | 481 kts | 296° |
| 2026-05-07 08:20 | 39.29550 | 35.66372 | 38193 ft | 481 kts | 296° |
| 2026-05-07 08:21 | 39.32524 | 35.58653 | 38197 ft | 480 kts | 296° |
| 2026-05-07 08:21 | 39.35500 | 35.50917 | 38195 ft | 479 kts | 296° |
| 2026-05-07 08:22 | 39.38458 | 35.43203 | 38196 ft | 480 kts | 296° |
| 2026-05-07 08:22 | 39.41433 | 35.35427 | 38199 ft | 482 kts | 296° |
| 2026-05-07 08:23 | 39.44387 | 35.27686 | 38196 ft | 483 kts | 296° |
| 2026-05-07 08:23 | 39.47348 | 35.19907 | 38199 ft | 483 kts | 296° |
| 2026-05-07 08:24 | 39.50316 | 35.12088 | 38196 ft | 482 kts | 296° |
| 2026-05-07 08:24 | 39.53260 | 35.04312 | 38198 ft | 482 kts | 297° |
| 2026-05-07 08:25 | 39.56206 | 34.96509 | 38188 ft | 481 kts | 297° |
| 2026-05-07 08:25 | 39.59138 | 34.88725 | 38185 ft | 480 kts | 297° |
| 2026-05-07 08:26 | 39.63518 | 34.77059 | 38184 ft | 480 kts | 297° |
| 2026-05-07 08:26 | 39.66410 | 34.69329 | 38190 ft | 482 kts | 297° |
| 2026-05-07 08:27 | 39.69367 | 34.61405 | 38189 ft | 481 kts | 297° |
| 2026-05-07 08:27 | 39.72277 | 34.53586 | 38188 ft | 480 kts | 297° |
| 2026-05-07 08:28 | 39.75171 | 34.45791 | 38190 ft | 478 kts | 297° |
| 2026-05-07 08:28 | 39.78063 | 34.37979 | 38186 ft | 479 kts | 297° |
| 2026-05-07 08:29 | 39.80931 | 34.30213 | 38188 ft | 480 kts | 297° |
| 2026-05-07 08:29 | 39.83803 | 34.22415 | 38188 ft | 481 kts | 297° |
| 2026-05-07 08:30 | 39.86690 | 34.14555 | 38186 ft | 479 kts | 297° |
| 2026-05-07 08:30 | 39.89565 | 34.06707 | 38185 ft | 479 kts | 297° |
| 2026-05-07 08:31 | 39.92292 | 33.99241 | 38183 ft | 479 kts | 297° |
| 2026-05-07 08:31 | 39.95155 | 33.91384 | 38185 ft | 480 kts | 297° |
| 2026-05-07 08:32 | 39.98013 | 33.83522 | 38182 ft | 479 kts | 297° |
| 2026-05-07 08:32 | 40.00854 | 33.75683 | 38180 ft | 478 kts | 297° |
| 2026-05-07 08:33 | 40.03692 | 33.67831 | 38180 ft | 478 kts | 297° |
| 2026-05-07 08:33 | 40.06516 | 33.59997 | 38181 ft | 477 kts | 297° |
| 2026-05-07 08:34 | 40.09341 | 33.52141 | 38185 ft | 478 kts | 297° |
| 2026-05-07 08:34 | 40.12160 | 33.44280 | 38187 ft | 479 kts | 297° |
| 2026-05-07 08:35 | 40.14988 | 33.36370 | 38190 ft | 481 kts | 297° |
| 2026-05-07 08:35 | 40.17783 | 33.28533 | 38196 ft | 481 kts | 297° |
| 2026-05-07 08:36 | 40.20599 | 33.20613 | 38206 ft | 480 kts | 297° |
| 2026-05-07 08:36 | 40.23401 | 33.12713 | 38202 ft | 479 kts | 297° |
| 2026-05-07 08:37 | 40.27079 | 33.04963 | 38220 ft | 477 kts | 306° |
| 2026-05-07 08:37 | 40.30873 | 32.97753 | 38218 ft | 477 kts | 306° |
| 2026-05-07 08:38 | 40.34615 | 32.90577 | 38184 ft | 477 kts | 306° |
| 2026-05-07 08:38 | 40.38346 | 32.83430 | 38183 ft | 477 kts | 306° |
| 2026-05-07 08:39 | 40.42103 | 32.76206 | 38192 ft | 477 kts | 306° |
| 2026-05-07 08:39 | 40.45846 | 32.68996 | 38188 ft | 477 kts | 306° |
| 2026-05-07 08:40 | 40.48943 | 32.63017 | 38183 ft | 476 kts | 306° |
| 2026-05-07 08:40 | 40.52684 | 32.55778 | 38183 ft | 476 kts | 306° |
| 2026-05-07 08:41 | 40.56399 | 32.48576 | 38178 ft | 476 kts | 306° |
| 2026-05-07 08:41 | 40.60694 | 32.40226 | 38169 ft | 474 kts | 306° |
| 2026-05-07 08:42 | 40.63796 | 32.34181 | 38168 ft | 474 kts | 306° |
| 2026-05-07 08:42 | 40.67489 | 32.26971 | 38167 ft | 475 kts | 305° |
| 2026-05-07 08:43 | 40.71173 | 32.19760 | 38158 ft | 475 kts | 305° |
| 2026-05-07 08:43 | 40.74813 | 32.12474 | 38155 ft | 474 kts | 304° |
| 2026-05-07 08:44 | 40.78412 | 32.05207 | 38149 ft | 473 kts | 305° |
| 2026-05-07 08:44 | 40.81997 | 31.97994 | 38151 ft | 472 kts | 304° |
| 2026-05-07 08:45 | 40.85572 | 31.90751 | 38151 ft | 471 kts | 305° |
| 2026-05-07 08:45 | 40.89188 | 31.83432 | 38150 ft | 472 kts | 304° |
| 2026-05-07 08:46 | 40.92736 | 31.76219 | 38147 ft | 471 kts | 304° |
| 2026-05-07 08:46 | 40.96305 | 31.68954 | 38152 ft | 470 kts | 304° |
| 2026-05-07 08:47 | 40.99867 | 31.61680 | 38150 ft | 470 kts | 304° |
| 2026-05-07 08:47 | 41.03416 | 31.54421 | 38150 ft | 470 kts | 304° |
| 2026-05-07 08:48 | 41.06975 | 31.47120 | 38153 ft | 471 kts | 304° |
| 2026-05-07 08:48 | 41.10527 | 31.39819 | 38158 ft | 471 kts | 304° |
| 2026-05-07 08:49 | 41.14077 | 31.32505 | 38156 ft | 471 kts | 304° |
| 2026-05-07 08:49 | 41.17601 | 31.25225 | 38160 ft | 471 kts | 304° |
| 2026-05-07 08:50 | 41.21149 | 31.17878 | 38159 ft | 470 kts | 304° |
| 2026-05-07 08:50 | 41.24667 | 31.10577 | 38153 ft | 469 kts | 304° |
| 2026-05-07 08:51 | 41.28194 | 31.03238 | 38152 ft | 469 kts | 304° |
| 2026-05-07 08:51 | 41.31686 | 30.95957 | 38155 ft | 468 kts | 304° |
| 2026-05-07 08:52 | 41.35157 | 30.88702 | 38152 ft | 468 kts | 304° |
| 2026-05-07 08:52 | 41.38651 | 30.81380 | 38150 ft | 469 kts | 304° |
| 2026-05-07 08:53 | 41.42153 | 30.74024 | 38152 ft | 471 kts | 304° |
| 2026-05-07 08:53 | 41.45674 | 30.66667 | 38151 ft | 470 kts | 304° |
| 2026-05-07 08:54 | 41.49205 | 30.59333 | 38154 ft | 469 kts | 304° |
| 2026-05-07 08:54 | 41.52689 | 30.52035 | 38155 ft | 468 kts | 304° |
| 2026-05-07 08:55 | 41.56197 | 30.44698 | 38155 ft | 469 kts | 304° |
| 2026-05-07 08:55 | 41.59697 | 30.37342 | 38156 ft | 470 kts | 304° |
| 2026-05-07 08:56 | 41.63203 | 30.29966 | 38158 ft | 471 kts | 304° |
| 2026-05-07 08:56 | 41.66698 | 30.22588 | 38157 ft | 470 kts | 304° |
| 2026-05-07 08:57 | 41.70190 | 30.15204 | 38156 ft | 468 kts | 304° |
| 2026-05-07 08:57 | 41.73088 | 30.09059 | 38156 ft | 467 kts | 303° |